AAL317 KBOS-KJFK
Flight info
| Callsign | AAL317 |
|---|---|
| Flight time | 0h 42m |
| Altitude | 22000 |
| Route | SSOXS7 SSOXS BUZRD SEY PARCH4 |
| Aircraft | B738/M-SDE2E3FGHIRWXY/LB1 |
Departure
| Time | 2026-05-08 01:15 |
|---|---|
| Airport | Boston Logan International Airport (KBOS) |
Arrival
| Time | 2026-05-08 01:57 |
|---|---|
| Airport | John F. Kennedy International Airport (KJFK) |
| Time | Latitude | Longitude | Altitude | Speed | Heading |
|---|---|---|---|---|---|
| 2026-05-08 00:33 | 42.36015 | -71.01871 | 24 ft | 0 kts | 31° |
| 2026-05-08 00:54 | 42.36003 | -71.01881 | 29 ft | 4 kts | 37° |
| 2026-05-08 00:54 | 42.35983 | -71.01906 | 30 ft | 4 kts | 57° |
| 2026-05-08 00:55 | 42.35974 | -71.01937 | 28 ft | 4 kts | 98° |
| 2026-05-08 00:55 | 42.35977 | -71.01951 | 28 ft | 1 kts | 120° |
| 2026-05-08 01:02 | 42.35974 | -71.01946 | 24 ft | 4 kts | 120° |
| 2026-05-08 01:03 | 42.35949 | -71.01889 | 25 ft | 8 kts | 120° |
| 2026-05-08 01:03 | 42.35924 | -71.01821 | 24 ft | 9 kts | 110° |
| 2026-05-08 01:03 | 42.35910 | -71.01741 | 27 ft | 9 kts | 100° |
| 2026-05-08 01:03 | 42.35897 | -71.01664 | 28 ft | 8 kts | 103° |
| 2026-05-08 01:04 | 42.35894 | -71.01588 | 28 ft | 8 kts | 77° |
| 2026-05-08 01:04 | 42.35942 | -71.01531 | 28 ft | 11 kts | 22° |
| 2026-05-08 01:04 | 42.36010 | -71.01493 | 28 ft | 10 kts | 21° |
| 2026-05-08 01:04 | 42.36084 | -71.01455 | 27 ft | 12 kts | 18° |
| 2026-05-08 01:05 | 42.36157 | -71.01422 | 28 ft | 6 kts | 20° |
| 2026-05-08 01:05 | 42.36194 | -71.01403 | 28 ft | 6 kts | 20° |
| 2026-05-08 01:05 | 42.36232 | -71.01385 | 29 ft | 6 kts | 19° |
| 2026-05-08 01:05 | 42.36300 | -71.01350 | 27 ft | 11 kts | 27° |
| 2026-05-08 01:06 | 42.36318 | -71.01274 | 28 ft | 9 kts | 123° |
| 2026-05-08 01:06 | 42.36285 | -71.01203 | 24 ft | 9 kts | 122° |
| 2026-05-08 01:06 | 42.36260 | -71.01130 | 24 ft | 9 kts | 120° |
| 2026-05-08 01:06 | 42.36230 | -71.01058 | 27 ft | 9 kts | 119° |
| 2026-05-08 01:07 | 42.36201 | -71.00978 | 26 ft | 9 kts | 115° |
| 2026-05-08 01:07 | 42.36179 | -71.00895 | 24 ft | 10 kts | 111° |
| 2026-05-08 01:07 | 42.36146 | -71.00810 | 28 ft | 11 kts | 118° |
| 2026-05-08 01:07 | 42.36120 | -71.00714 | 28 ft | 11 kts | 107° |
| 2026-05-08 01:08 | 42.36095 | -71.00619 | 26 ft | 10 kts | 111° |
| 2026-05-08 01:08 | 42.36071 | -71.00527 | 25 ft | 10 kts | 109° |
| 2026-05-08 01:08 | 42.36048 | -71.00435 | 29 ft | 11 kts | 109° |
| 2026-05-08 01:08 | 42.36019 | -71.00323 | 27 ft | 14 kts | 109° |
| 2026-05-08 01:09 | 42.35987 | -71.00198 | 28 ft | 14 kts | 109° |
| 2026-05-08 01:09 | 42.35945 | -71.00074 | 29 ft | 16 kts | 124° |
| 2026-05-08 01:09 | 42.35870 | -70.99970 | 27 ft | 15 kts | 135° |
| 2026-05-08 01:09 | 42.35798 | -70.99873 | 24 ft | 14 kts | 135° |
| 2026-05-08 01:10 | 42.35729 | -70.99780 | 28 ft | 14 kts | 135° |
| 2026-05-08 01:10 | 42.35663 | -70.99692 | 26 ft | 13 kts | 135° |
| 2026-05-08 01:10 | 42.35599 | -70.99607 | 28 ft | 13 kts | 135° |
| 2026-05-08 01:10 | 42.35542 | -70.99530 | 28 ft | 10 kts | 135° |
| 2026-05-08 01:11 | 42.35496 | -70.99466 | 27 ft | 9 kts | 128° |
| 2026-05-08 01:11 | 42.35491 | -70.99389 | 24 ft | 5 kts | 78° |
| 2026-05-08 01:11 | 42.35491 | -70.99385 | 26 ft | 0 kts | 78° |
| 2026-05-08 01:12 | 42.35492 | -70.99383 | 28 ft | 1 kts | 78° |
| 2026-05-08 01:12 | 42.35498 | -70.99346 | 28 ft | 9 kts | 77° |
| 2026-05-08 01:12 | 42.35520 | -70.99264 | 24 ft | 3 kts | 39° |
| 2026-05-08 01:13 | 42.35544 | -70.99269 | 25 ft | 4 kts | 328° |
| 2026-05-08 01:13 | 42.35550 | -70.99278 | 24 ft | 0 kts | 309° |
| 2026-05-08 01:14 | 42.35555 | -70.99286 | 26 ft | 11 kts | 309° |
| 2026-05-08 01:14 | 42.35790 | -70.99600 | 24 ft | 83 kts | 315° |
| 2026-05-08 01:14 | 42.36353 | -71.00353 | 26 ft | 142 kts | 315° |
| 2026-05-08 01:15 | 42.37121 | -71.01378 | 436 ft | 156 kts | 315° |
| 2026-05-08 01:15 | 42.37919 | -71.02395 | 1150 ft | 156 kts | 315° |
| 2026-05-08 01:15 | 42.38622 | -71.03502 | 1855 ft | 159 kts | 300° |
| 2026-05-08 01:15 | 42.39162 | -71.04899 | 2338 ft | 180 kts | 297° |
| 2026-05-08 01:16 | 42.39817 | -71.06484 | 2610 ft | 204 kts | 299° |
| 2026-05-08 01:16 | 42.40519 | -71.08249 | 2996 ft | 217 kts | 292° |
| 2026-05-08 01:16 | 42.40774 | -71.10314 | 3338 ft | 240 kts | 261° |
| 2026-05-08 01:16 | 42.40021 | -71.12405 | 3952 ft | 255 kts | 238° |
| 2026-05-08 01:17 | 42.38982 | -71.14365 | 4767 ft | 259 kts | 237° |
| 2026-05-08 01:17 | 42.37914 | -71.16353 | 5563 ft | 263 kts | 237° |
| 2026-05-08 01:17 | 42.36792 | -71.18338 | 6314 ft | 270 kts | 228° |
| 2026-05-08 01:17 | 42.35186 | -71.19648 | 7087 ft | 280 kts | 199° |
| 2026-05-08 01:18 | 42.33226 | -71.19766 | 7884 ft | 288 kts | 170° |
| 2026-05-08 01:18 | 42.31303 | -71.18944 | 8650 ft | 293 kts | 161° |
| 2026-05-08 01:18 | 42.29388 | -71.17962 | 9400 ft | 296 kts | 161° |
| 2026-05-08 01:18 | 42.27449 | -71.16975 | 10167 ft | 298 kts | 162° |
| 2026-05-08 01:19 | 42.25481 | -71.15914 | 10560 ft | 318 kts | 155° |
| 2026-05-08 01:19 | 42.23642 | -71.14019 | 10754 ft | 346 kts | 141° |
| 2026-05-08 01:19 | 42.21805 | -71.11762 | 10918 ft | 368 kts | 141° |
| 2026-05-08 01:19 | 42.19847 | -71.09391 | 11073 ft | 388 kts | 142° |
| 2026-05-08 01:20 | 42.17782 | -71.06949 | 11435 ft | 400 kts | 143° |
| 2026-05-08 01:20 | 42.15667 | -71.04474 | 12020 ft | 404 kts | 143° |
| 2026-05-08 01:20 | 42.13473 | -71.02098 | 12648 ft | 405 kts | 149° |
| 2026-05-08 01:20 | 42.11167 | -70.99921 | 13348 ft | 405 kts | 152° |
| 2026-05-08 01:21 | 42.08845 | -70.97830 | 14063 ft | 406 kts | 153° |
| 2026-05-08 01:21 | 42.06464 | -70.95691 | 14776 ft | 408 kts | 153° |
| 2026-05-08 01:21 | 42.04107 | -70.93543 | 15472 ft | 410 kts | 153° |
| 2026-05-08 01:21 | 42.01744 | -70.91367 | 16128 ft | 413 kts | 154° |
| 2026-05-08 01:22 | 41.99371 | -70.89167 | 16771 ft | 415 kts | 154° |
| 2026-05-08 01:22 | 41.96984 | -70.86946 | 17416 ft | 418 kts | 154° |
| 2026-05-08 01:22 | 41.94619 | -70.84742 | 17977 ft | 421 kts | 155° |
| 2026-05-08 01:22 | 41.92209 | -70.82498 | 18565 ft | 423 kts | 155° |
| 2026-05-08 01:23 | 41.89781 | -70.80243 | 19079 ft | 426 kts | 155° |
| 2026-05-08 01:23 | 41.87302 | -70.78076 | 19613 ft | 420 kts | 163° |
| 2026-05-08 01:23 | 41.84604 | -70.76973 | 20089 ft | 397 kts | 184° |
| 2026-05-08 01:23 | 41.81915 | -70.77108 | 20645 ft | 381 kts | 197° |
| 2026-05-08 01:24 | 41.79371 | -70.77962 | 21121 ft | 375 kts | 207° |
| 2026-05-08 01:24 | 41.77029 | -70.79473 | 21418 ft | 375 kts | 214° |
| 2026-05-08 01:24 | 41.74746 | -70.81210 | 21771 ft | 378 kts | 215° |
| 2026-05-08 01:24 | 41.72470 | -70.82965 | 21820 ft | 378 kts | 215° |
| 2026-05-08 01:25 | 41.70174 | -70.84727 | 21841 ft | 381 kts | 214° |
| 2026-05-08 01:25 | 41.67858 | -70.86486 | 21840 ft | 383 kts | 214° |
| 2026-05-08 01:25 | 41.65540 | -70.88230 | 21839 ft | 382 kts | 214° |
| 2026-05-08 01:25 | 41.63224 | -70.89964 | 21841 ft | 381 kts | 214° |
| 2026-05-08 01:26 | 41.60910 | -70.91692 | 21842 ft | 381 kts | 214° |
| 2026-05-08 01:26 | 41.58602 | -70.93413 | 21842 ft | 380 kts | 214° |
| 2026-05-08 01:26 | 41.56341 | -70.95238 | 21842 ft | 377 kts | 219° |
| 2026-05-08 01:26 | 41.54296 | -70.97410 | 21843 ft | 375 kts | 224° |
| 2026-05-08 01:27 | 41.52442 | -70.99848 | 21842 ft | 374 kts | 231° |
| 2026-05-08 01:27 | 41.50812 | -71.02498 | 21848 ft | 374 kts | 232° |
| 2026-05-08 01:27 | 41.49176 | -71.05187 | 21836 ft | 374 kts | 232° |
| 2026-05-08 01:27 | 41.47527 | -71.07890 | 21841 ft | 375 kts | 232° |
| 2026-05-08 01:28 | 41.45872 | -71.10594 | 21846 ft | 376 kts | 232° |
| 2026-05-08 01:28 | 41.44216 | -71.13291 | 21849 ft | 376 kts | 232° |
| 2026-05-08 01:28 | 41.42557 | -71.15988 | 21854 ft | 376 kts | 232° |
| 2026-05-08 01:28 | 41.40895 | -71.18686 | 21856 ft | 377 kts | 232° |
| 2026-05-08 01:29 | 41.39231 | -71.21384 | 21856 ft | 377 kts | 232° |
| 2026-05-08 01:29 | 41.37566 | -71.24081 | 21853 ft | 377 kts | 232° |
| 2026-05-08 01:29 | 41.35901 | -71.26775 | 21861 ft | 376 kts | 232° |
| 2026-05-08 01:29 | 41.34239 | -71.29462 | 21856 ft | 376 kts | 232° |
| 2026-05-08 01:30 | 41.32570 | -71.32157 | 21868 ft | 377 kts | 232° |
| 2026-05-08 01:30 | 41.30902 | -71.34849 | 21851 ft | 377 kts | 231° |
| 2026-05-08 01:30 | 41.29235 | -71.37537 | 21866 ft | 377 kts | 231° |
| 2026-05-08 01:30 | 41.27568 | -71.40223 | 21867 ft | 376 kts | 231° |
| 2026-05-08 01:31 | 41.25901 | -71.42906 | 21853 ft | 376 kts | 231° |
| 2026-05-08 01:31 | 41.24235 | -71.45587 | 21872 ft | 376 kts | 231° |
| 2026-05-08 01:31 | 41.22568 | -71.48266 | 21870 ft | 376 kts | 231° |
| 2026-05-08 01:31 | 41.20899 | -71.50946 | 21871 ft | 376 kts | 231° |
| 2026-05-08 01:32 | 41.19228 | -71.53625 | 21872 ft | 377 kts | 231° |
| 2026-05-08 01:32 | 41.17659 | -71.56407 | 21861 ft | 377 kts | 239° |
| 2026-05-08 01:32 | 41.16576 | -71.59572 | 21873 ft | 379 kts | 249° |
| 2026-05-08 01:32 | 41.15983 | -71.62989 | 21876 ft | 381 kts | 256° |
| 2026-05-08 01:33 | 41.15565 | -71.66427 | 21870 ft | 382 kts | 257° |
| 2026-05-08 01:33 | 41.15164 | -71.69904 | 21858 ft | 381 kts | 257° |
| 2026-05-08 01:33 | 41.14760 | -71.73377 | 21871 ft | 381 kts | 257° |
| 2026-05-08 01:33 | 41.14346 | -71.76852 | 21875 ft | 380 kts | 257° |
| 2026-05-08 01:34 | 41.13925 | -71.80313 | 21879 ft | 380 kts | 257° |
| 2026-05-08 01:34 | 41.13497 | -71.83771 | 21881 ft | 380 kts | 257° |
| 2026-05-08 01:34 | 41.13066 | -71.87228 | 21882 ft | 380 kts | 256° |
| 2026-05-08 01:34 | 41.12632 | -71.90683 | 21885 ft | 380 kts | 256° |
| 2026-05-08 01:35 | 41.12197 | -71.94137 | 21889 ft | 380 kts | 256° |
| 2026-05-08 01:35 | 41.11761 | -71.97591 | 21889 ft | 380 kts | 256° |
| 2026-05-08 01:35 | 41.11323 | -72.01052 | 21888 ft | 380 kts | 256° |
| 2026-05-08 01:35 | 41.11034 | -72.03335 | 21886 ft | 380 kts | 257° |
| 2026-05-08 01:36 | 41.10594 | -72.06802 | 21886 ft | 381 kts | 256° |
| 2026-05-08 01:36 | 41.10156 | -72.10246 | 21879 ft | 375 kts | 256° |
| 2026-05-08 01:36 | 41.09657 | -72.13562 | 21798 ft | 359 kts | 252° |
| 2026-05-08 01:36 | 41.08931 | -72.16693 | 21357 ft | 349 kts | 249° |
| 2026-05-08 01:37 | 41.08154 | -72.19715 | 20833 ft | 343 kts | 249° |
| 2026-05-08 01:37 | 41.07379 | -72.22683 | 20244 ft | 339 kts | 249° |
| 2026-05-08 01:37 | 41.06620 | -72.25619 | 19676 ft | 335 kts | 249° |
| 2026-05-08 01:37 | 41.05877 | -72.28526 | 19107 ft | 331 kts | 249° |
| 2026-05-08 01:38 | 41.05150 | -72.31403 | 18546 ft | 328 kts | 249° |
| 2026-05-08 01:38 | 41.04433 | -72.34252 | 17988 ft | 324 kts | 250° |
| 2026-05-08 01:38 | 41.03728 | -72.37069 | 17442 ft | 321 kts | 250° |
| 2026-05-08 01:38 | 41.03030 | -72.39859 | 16974 ft | 316 kts | 250° |
| 2026-05-08 01:39 | 41.02342 | -72.42611 | 16449 ft | 314 kts | 250° |
| 2026-05-08 01:39 | 41.01656 | -72.45357 | 15926 ft | 314 kts | 250° |
| 2026-05-08 01:39 | 41.00969 | -72.48098 | 15403 ft | 314 kts | 251° |
| 2026-05-08 01:39 | 41.00279 | -72.50852 | 14864 ft | 319 kts | 251° |
| 2026-05-08 01:40 | 40.99569 | -72.53682 | 14337 ft | 328 kts | 251° |
| 2026-05-08 01:40 | 40.98849 | -72.56550 | 13777 ft | 328 kts | 251° |
| 2026-05-08 01:40 | 40.98143 | -72.59361 | 13232 ft | 324 kts | 252° |
| 2026-05-08 01:40 | 40.97436 | -72.62172 | 12887 ft | 316 kts | 252° |
| 2026-05-08 01:41 | 40.96757 | -72.64870 | 12721 ft | 303 kts | 252° |
| 2026-05-08 01:41 | 40.96105 | -72.67458 | 12587 ft | 291 kts | 252° |
| 2026-05-08 01:41 | 40.95476 | -72.69948 | 12460 ft | 280 kts | 252° |
| 2026-05-08 01:41 | 40.94872 | -72.72342 | 12338 ft | 269 kts | 252° |
| 2026-05-08 01:42 | 40.94289 | -72.74642 | 12220 ft | 258 kts | 252° |
| 2026-05-08 01:42 | 40.93724 | -72.76867 | 12107 ft | 252 kts | 252° |
| 2026-05-08 01:42 | 40.93096 | -72.79016 | 11980 ft | 253 kts | 242° |
| 2026-05-08 01:42 | 40.91983 | -72.80836 | 11787 ft | 256 kts | 228° |
| 2026-05-08 01:43 | 40.90590 | -72.82318 | 11581 ft | 256 kts | 222° |
| 2026-05-08 01:43 | 40.89149 | -72.83680 | 11377 ft | 254 kts | 221° |
| 2026-05-08 01:43 | 40.87703 | -72.85028 | 11175 ft | 255 kts | 221° |
| 2026-05-08 01:43 | 40.86253 | -72.86384 | 10972 ft | 256 kts | 220° |
| 2026-05-08 01:44 | 40.84800 | -72.87755 | 10774 ft | 257 kts | 222° |
| 2026-05-08 01:44 | 40.83703 | -72.89493 | 10546 ft | 249 kts | 251° |
| 2026-05-08 01:44 | 40.83290 | -72.91708 | 10247 ft | 252 kts | 263° |
| 2026-05-08 01:44 | 40.83129 | -72.94048 | 9879 ft | 259 kts | 267° |
| 2026-05-08 01:45 | 40.83030 | -72.96479 | 9500 ft | 263 kts | 268° |
| 2026-05-08 01:45 | 40.82942 | -72.98862 | 9130 ft | 264 kts | 269° |
| 2026-05-08 01:45 | 40.82846 | -73.01301 | 8759 ft | 266 kts | 269° |
| 2026-05-08 01:45 | 40.82744 | -73.03744 | 8378 ft | 268 kts | 269° |
| 2026-05-08 01:46 | 40.82635 | -73.06210 | 8008 ft | 269 kts | 269° |
| 2026-05-08 01:46 | 40.82522 | -73.08680 | 7633 ft | 270 kts | 269° |
| 2026-05-08 01:46 | 40.82406 | -73.11161 | 7263 ft | 271 kts | 269° |
| 2026-05-08 01:46 | 40.82287 | -73.13652 | 6889 ft | 272 kts | 269° |
| 2026-05-08 01:47 | 40.82166 | -73.16131 | 6506 ft | 269 kts | 269° |
| 2026-05-08 01:47 | 40.82046 | -73.18575 | 6176 ft | 263 kts | 269° |
| 2026-05-08 01:47 | 40.81927 | -73.20949 | 5922 ft | 256 kts | 269° |
| 2026-05-08 01:48 | 40.81694 | -73.25586 | 5403 ft | 251 kts | 269° |
| 2026-05-08 01:48 | 40.81579 | -73.27872 | 5162 ft | 249 kts | 269° |
| 2026-05-08 01:48 | 40.81465 | -73.30140 | 4914 ft | 246 kts | 269° |
| 2026-05-08 01:48 | 40.81351 | -73.32390 | 4663 ft | 245 kts | 269° |
| 2026-05-08 01:49 | 40.81236 | -73.34628 | 4411 ft | 244 kts | 269° |
| 2026-05-08 01:49 | 40.81123 | -73.36857 | 4164 ft | 243 kts | 269° |
| 2026-05-08 01:49 | 40.81011 | -73.39048 | 3918 ft | 242 kts | 268° |
| 2026-05-08 01:49 | 40.80897 | -73.41257 | 3663 ft | 240 kts | 268° |
| 2026-05-08 01:50 | 40.80783 | -73.43452 | 3408 ft | 239 kts | 268° |
| 2026-05-08 01:50 | 40.80667 | -73.45630 | 3158 ft | 237 kts | 268° |
| 2026-05-08 01:50 | 40.80555 | -73.47773 | 3037 ft | 230 kts | 268° |
| 2026-05-08 01:50 | 40.80447 | -73.49838 | 2995 ft | 220 kts | 268° |
| 2026-05-08 01:51 | 40.80344 | -73.51796 | 2981 ft | 208 kts | 269° |
| 2026-05-08 01:51 | 40.80247 | -73.53667 | 3012 ft | 202 kts | 269° |
| 2026-05-08 01:51 | 40.80151 | -73.55495 | 2992 ft | 195 kts | 269° |
| 2026-05-08 01:51 | 40.80059 | -73.57229 | 2976 ft | 184 kts | 269° |
| 2026-05-08 01:52 | 40.79970 | -73.58902 | 3001 ft | 181 kts | 269° |
| 2026-05-08 01:52 | 40.79881 | -73.60566 | 3022 ft | 183 kts | 269° |
| 2026-05-08 01:52 | 40.79770 | -73.62242 | 3005 ft | 186 kts | 261° |
| 2026-05-08 01:52 | 40.79075 | -73.63660 | 3014 ft | 190 kts | 219° |
| 2026-05-08 01:53 | 40.78017 | -73.64688 | 2974 ft | 186 kts | 220° |
| 2026-05-08 01:53 | 40.76989 | -73.65658 | 2821 ft | 179 kts | 216° |
| 2026-05-08 01:53 | 40.75946 | -73.66521 | 2587 ft | 173 kts | 214° |
| 2026-05-08 01:53 | 40.74945 | -73.67312 | 2389 ft | 164 kts | 213° |
| 2026-05-08 01:54 | 40.73973 | -73.68074 | 2156 ft | 160 kts | 213° |
| 2026-05-08 01:54 | 40.73028 | -73.68815 | 1957 ft | 159 kts | 212° |
| 2026-05-08 01:54 | 40.72073 | -73.69565 | 1741 ft | 159 kts | 211° |
| 2026-05-08 01:54 | 40.71139 | -73.70297 | 1559 ft | 153 kts | 211° |
| 2026-05-08 01:55 | 40.70227 | -73.71013 | 1338 ft | 151 kts | 210° |
| 2026-05-08 01:55 | 40.69334 | -73.71712 | 1132 ft | 148 kts | 209° |
| 2026-05-08 01:55 | 40.68448 | -73.72408 | 933 ft | 149 kts | 209° |
| 2026-05-08 01:55 | 40.67580 | -73.73100 | 768 ft | 146 kts | 208° |
| 2026-05-08 01:56 | 40.66691 | -73.73794 | 528 ft | 146 kts | 209° |
| 2026-05-08 01:56 | 40.65838 | -73.74470 | 346 ft | 145 kts | 208° |
| 2026-05-08 01:56 | 40.64971 | -73.75139 | 167 ft | 146 kts | 210° |
| 2026-05-08 01:56 | 40.64114 | -73.75807 | 33 ft | 137 kts | 209° |
| 2026-05-08 01:57 | 40.63421 | -73.76352 | 23 ft | 87 kts | 210° |
| 2026-05-08 01:57 | 40.63089 | -73.76616 | 18 ft | 42 kts | 219° |
| 2026-05-08 01:57 | 40.62933 | -73.76893 | 22 ft | 21 kts | 252° |
| 2026-05-08 01:57 | 40.62975 | -73.77071 | 21 ft | 23 kts | 300° |
| 2026-05-08 01:58 | 40.63054 | -73.77247 | 22 ft | 22 kts | 300° |
| 2026-05-08 01:58 | 40.63130 | -73.77416 | 26 ft | 21 kts | 301° |
| 2026-05-08 01:58 | 40.63205 | -73.77583 | 28 ft | 21 kts | 300° |
| 2026-05-08 01:58 | 40.63277 | -73.77744 | 29 ft | 20 kts | 300° |
| 2026-05-08 01:59 | 40.63350 | -73.77898 | 27 ft | 20 kts | 299° |
| 2026-05-08 01:59 | 40.63416 | -73.78052 | 24 ft | 19 kts | 302° |
| 2026-05-08 01:59 | 40.63481 | -73.78199 | 28 ft | 18 kts | 300° |
| 2026-05-08 01:59 | 40.63545 | -73.78341 | 28 ft | 18 kts | 300° |
| 2026-05-08 02:00 | 40.63607 | -73.78478 | 27 ft | 17 kts | 301° |
| 2026-05-08 02:00 | 40.63667 | -73.78610 | 27 ft | 17 kts | 301° |
| 2026-05-08 02:00 | 40.63724 | -73.78738 | 27 ft | 16 kts | 300° |
| 2026-05-08 02:00 | 40.63780 | -73.78864 | 28 ft | 17 kts | 302° |
| 2026-05-08 02:01 | 40.63849 | -73.79007 | 23 ft | 19 kts | 302° |
| 2026-05-08 02:01 | 40.63917 | -73.79152 | 22 ft | 18 kts | 300° |
| 2026-05-08 02:01 | 40.63977 | -73.79290 | 22 ft | 16 kts | 300° |
| 2026-05-08 02:01 | 40.64008 | -73.79362 | 23 ft | 8 kts | 299° |
| 2026-05-08 02:02 | 40.64034 | -73.79422 | 21 ft | 7 kts | 299° |
| 2026-05-08 02:02 | 40.64059 | -73.79480 | 21 ft | 7 kts | 301° |
| 2026-05-08 02:02 | 40.64086 | -73.79536 | 22 ft | 9 kts | 304° |
| 2026-05-08 02:02 | 40.64149 | -73.79603 | 26 ft | 12 kts | 336° |
| 2026-05-08 02:03 | 40.64233 | -73.79602 | 25 ft | 12 kts | 5° |
| 2026-05-08 02:03 | 40.64320 | -73.79597 | 27 ft | 13 kts | 3° |
| 2026-05-08 02:03 | 40.64408 | -73.79592 | 25 ft | 12 kts | 359° |
| 2026-05-08 02:03 | 40.64493 | -73.79599 | 26 ft | 12 kts | 356° |
| 2026-05-08 02:04 | 40.64574 | -73.79596 | 24 ft | 12 kts | 37° |
| 2026-05-08 02:04 | 40.64607 | -73.79500 | 23 ft | 12 kts | 78° |
| 2026-05-08 02:04 | 40.64616 | -73.79398 | 25 ft | 10 kts | 89° |
| 2026-05-08 02:04 | 40.64601 | -73.79312 | 25 ft | 9 kts | 95° |
| 2026-05-08 02:05 | 40.64630 | -73.79284 | 23 ft | 2 kts | 342° |
| 2026-05-08 02:05 | 40.64639 | -73.79298 | 23 ft | 2 kts | 318° |
| 2026-05-08 02:05 | 40.64658 | -73.79311 | 23 ft | 3 kts | 336° |
| 2026-05-08 02:05 | 40.64673 | -73.79319 | 24 ft | 2 kts | 338° |
| 2026-05-08 02:06 | 40.64678 | -73.79322 | 23 ft | 0 kts | 338° |